sensor_id;sensor_type;location;lat;lon;timestamp;P1;durP1;ratioP1;P2;durP2;ratioP2
79798;SDS011;69283;48.024;11.090;2024-02-04T00:01:43;5.57;;;3.35;;
79798;SDS011;69283;48.024;11.090;2024-02-04T00:04:08;8.18;;;3.45;;
79798;SDS011;69283;48.024;11.090;2024-02-04T00:06:34;6.93;;;3.90;;
79798;SDS011;69283;48.024;11.090;2024-02-04T00:08:59;7.87;;;4.03;;
79798;SDS011;69283;48.024;11.090;2024-02-04T00:11:24;6.07;;;4.00;;
79798;SDS011;69283;48.024;11.090;2024-02-04T00:13:50;6.05;;;3.53;;
79798;SDS011;69283;48.024;11.090;2024-02-04T00:16:16;5.22;;;3.35;;
79798;SDS011;69283;48.024;11.090;2024-02-04T00:18:42;5.97;;;3.50;;
79798;SDS011;69283;48.024;11.090;2024-02-04T00:21:08;5.75;;;3.35;;
79798;SDS011;69283;48.024;11.090;2024-02-04T00:26:02;6.97;;;4.18;;
79798;SDS011;69283;48.024;11.090;2024-02-04T00:28:27;6.05;;;2.90;;
79798;SDS011;69283;48.024;11.090;2024-02-04T00:30:53;5.43;;;2.88;;
79798;SDS011;69283;48.024;11.090;2024-02-04T00:33:20;5.50;;;2.67;;
79798;SDS011;69283;48.024;11.090;2024-02-04T00:35:46;6.32;;;3.00;;
79798;SDS011;69283;48.024;11.090;2024-02-04T00:38:11;5.70;;;3.27;;
79798;SDS011;69283;48.024;11.090;2024-02-04T00:40:37;5.55;;;3.28;;
79798;SDS011;69283;48.024;11.090;2024-02-04T00:43:02;5.90;;;2.97;;
79798;SDS011;69283;48.024;11.090;2024-02-04T00:45:27;5.55;;;3.45;;
79798;SDS011;69283;48.024;11.090;2024-02-04T00:47:53;5.67;;;3.50;;
79798;SDS011;69283;48.024;11.090;2024-02-04T00:53:00;6.32;;;3.25;;
79798;SDS011;69283;48.024;11.090;2024-02-04T00:55:25;4.70;;;3.47;;
79798;SDS011;69283;48.024;11.090;2024-02-04T00:57:51;6.93;;;3.63;;
79798;SDS011;69283;48.024;11.090;2024-02-04T01:00:16;7.43;;;3.83;;
79798;SDS011;69283;48.024;11.090;2024-02-04T01:02:42;8.55;;;3.97;;
79798;SDS011;69283;48.024;11.090;2024-02-04T01:05:07;5.50;;;3.50;;
79798;SDS011;69283;48.024;11.090;2024-02-04T01:07:32;5.53;;;3.03;;
79798;SDS011;69283;48.024;11.090;2024-02-04T01:09:58;5.85;;;3.22;;
79798;SDS011;69283;48.024;11.090;2024-02-04T01:12:23;6.80;;;3.83;;
79798;SDS011;69283;48.024;11.090;2024-02-04T01:14:48;7.07;;;4.00;;
79798;SDS011;69283;48.024;11.090;2024-02-04T01:18:18;7.40;;;3.78;;
79798;SDS011;69283;48.024;11.090;2024-02-04T01:20:43;7.15;;;4.05;;
79798;SDS011;69283;48.024;11.090;2024-02-04T01:23:12;8.32;;;4.07;;
79798;SDS011;69283;48.024;11.090;2024-02-04T01:25:38;9.82;;;4.57;;
79798;SDS011;69283;48.024;11.090;2024-02-04T01:28:03;6.97;;;4.38;;
79798;SDS011;69283;48.024;11.090;2024-02-04T01:30:36;6.53;;;4.22;;
79798;SDS011;69283;48.024;11.090;2024-02-04T01:33:02;8.50;;;4.03;;
79798;SDS011;69283;48.024;11.090;2024-02-04T01:35:28;8.13;;;4.70;;
79798;SDS011;69283;48.024;11.090;2024-02-04T01:37:56;8.77;;;4.35;;
79798;SDS011;69283;48.024;11.090;2024-02-04T01:42:29;9.48;;;4.40;;
79798;SDS011;69283;48.024;11.090;2024-02-04T01:44:54;7.40;;;4.78;;
79798;SDS011;69283;48.024;11.090;2024-02-04T01:47:20;9.20;;;5.10;;
79798;SDS011;69283;48.024;11.090;2024-02-04T01:49:45;8.75;;;4.82;;
79798;SDS011;69283;48.024;11.090;2024-02-04T01:52:11;10.20;;;4.82;;
79798;SDS011;69283;48.024;11.090;2024-02-04T01:54:37;10.40;;;5.43;;
79798;SDS011;69283;48.024;11.090;2024-02-04T01:57:04;10.95;;;4.55;;
79798;SDS011;69283;48.024;11.090;2024-02-04T01:59:31;9.90;;;5.22;;
79798;SDS011;69283;48.024;11.090;2024-02-04T02:01:59;8.50;;;4.60;;
79798;SDS011;69283;48.024;11.090;2024-02-04T02:04:26;9.40;;;5.05;;
79798;SDS011;69283;48.024;11.090;2024-02-04T02:08:53;9.77;;;4.57;;
79798;SDS011;69283;48.024;11.090;2024-02-04T02:14:16;8.60;;;4.60;;
79798;SDS011;69283;48.024;11.090;2024-02-04T02:16:45;8.25;;;4.60;;
79798;SDS011;69283;48.024;11.090;2024-02-04T02:19:15;11.23;;;5.00;;
79798;SDS011;69283;48.024;11.090;2024-02-04T02:21:56;10.68;;;5.03;;
79798;SDS011;69283;48.024;11.090;2024-02-04T02:24:30;9.38;;;5.13;;
79798;SDS011;69283;48.024;11.090;2024-02-04T02:26:59;8.48;;;4.45;;
79798;SDS011;69283;48.024;11.090;2024-02-04T02:29:24;10.60;;;4.88;;
79798;SDS011;69283;48.024;11.090;2024-02-04T02:33:21;6.95;;;4.00;;
79798;SDS011;69283;48.024;11.090;2024-02-04T02:35:48;7.93;;;4.30;;
79798;SDS011;69283;48.024;11.090;2024-02-04T02:38:37;7.53;;;4.72;;
79798;SDS011;69283;48.024;11.090;2024-02-04T02:41:11;9.68;;;4.53;;
79798;SDS011;69283;48.024;11.090;2024-02-04T02:43:39;9.55;;;4.72;;
79798;SDS011;69283;48.024;11.090;2024-02-04T02:46:05;9.57;;;4.38;;
79798;SDS011;69283;48.024;11.090;2024-02-04T02:48:32;7.78;;;4.55;;
79798;SDS011;69283;48.024;11.090;2024-02-04T02:50:57;9.38;;;4.40;;
79798;SDS011;69283;48.024;11.090;2024-02-04T02:53:23;10.02;;;4.22;;
79798;SDS011;69283;48.024;11.090;2024-02-04T02:55:48;8.20;;;4.32;;
79798;SDS011;69283;48.024;11.090;2024-02-04T02:59:35;9.10;;;4.13;;
79798;SDS011;69283;48.024;11.090;2024-02-04T03:02:00;7.40;;;4.57;;
79798;SDS011;69283;48.024;11.090;2024-02-04T03:04:25;8.40;;;4.07;;
79798;SDS011;69283;48.024;11.090;2024-02-04T03:06:51;7.97;;;4.43;;
79798;SDS011;69283;48.024;11.090;2024-02-04T03:09:16;6.43;;;3.93;;
79798;SDS011;69283;48.024;11.090;2024-02-04T03:11:41;7.13;;;4.60;;
79798;SDS011;69283;48.024;11.090;2024-02-04T03:14:07;8.48;;;4.97;;
79798;SDS011;69283;48.024;11.090;2024-02-04T03:16:33;8.13;;;5.05;;
79798;SDS011;69283;48.024;11.090;2024-02-04T03:18:58;8.73;;;4.43;;
79798;SDS011;69283;48.024;11.090;2024-02-04T03:21:23;8.37;;;4.17;;
79798;SDS011;69283;48.024;11.090;2024-02-04T03:25:50;7.75;;;3.92;;
79798;SDS011;69283;48.024;11.090;2024-02-04T03:28:15;7.03;;;4.03;;
79798;SDS011;69283;48.024;11.090;2024-02-04T03:30:40;9.40;;;4.15;;
79798;SDS011;69283;48.024;11.090;2024-02-04T03:33:05;8.10;;;3.87;;
79798;SDS011;69283;48.024;11.090;2024-02-04T03:35:31;5.60;;;3.53;;
79798;SDS011;69283;48.024;11.090;2024-02-04T03:37:56;6.13;;;3.53;;
79798;SDS011;69283;48.024;11.090;2024-02-04T03:40:21;8.23;;;3.23;;
79798;SDS011;69283;48.024;11.090;2024-02-04T03:42:49;6.43;;;3.13;;
79798;SDS011;69283;48.024;11.090;2024-02-04T03:45:14;7.00;;;3.38;;
79798;SDS011;69283;48.024;11.090;2024-02-04T03:47:40;6.00;;;2.90;;
79798;SDS011;69283;48.024;11.090;2024-02-04T03:52:19;6.03;;;3.60;;
79798;SDS011;69283;48.024;11.090;2024-02-04T03:54:44;5.28;;;2.80;;
79798;SDS011;69283;48.024;11.090;2024-02-04T03:57:10;7.47;;;3.00;;
79798;SDS011;69283;48.024;11.090;2024-02-04T03:59:35;6.43;;;2.78;;
79798;SDS011;69283;48.024;11.090;2024-02-04T04:02:00;6.30;;;3.13;;
79798;SDS011;69283;48.024;11.090;2024-02-04T04:04:25;6.43;;;3.23;;
79798;SDS011;69283;48.024;11.090;2024-02-04T04:06:51;6.65;;;3.10;;
79798;SDS011;69283;48.024;11.090;2024-02-04T04:09:16;5.60;;;2.78;;
79798;SDS011;69283;48.024;11.090;2024-02-04T04:11:42;4.03;;;2.15;;
79798;SDS011;69283;48.024;11.090;2024-02-04T04:14:07;5.07;;;2.92;;
79798;SDS011;69283;48.024;11.090;2024-02-04T04:18:04;4.68;;;2.38;;
79798;SDS011;69283;48.024;11.090;2024-02-04T04:20:29;6.78;;;3.00;;
79798;SDS011;69283;48.024;11.090;2024-02-04T04:22:55;5.10;;;2.47;;
79798;SDS011;69283;48.024;11.090;2024-02-04T04:25:20;6.70;;;2.40;;
79798;SDS011;69283;48.024;11.090;2024-02-04T04:27:45;5.03;;;2.50;;
79798;SDS011;69283;48.024;11.090;2024-02-04T04:30:11;4.47;;;2.57;;
79798;SDS011;69283;48.024;11.090;2024-02-04T04:32:36;4.55;;;2.80;;
79798;SDS011;69283;48.024;11.090;2024-02-04T04:35:02;4.65;;;2.30;;
79798;SDS011;69283;48.024;11.090;2024-02-04T04:37:27;3.83;;;2.40;;
79798;SDS011;69283;48.024;11.090;2024-02-04T04:39:52;6.30;;;2.60;;
79798;SDS011;69283;48.024;11.090;2024-02-04T04:45:18;3.42;;;2.38;;
79798;SDS011;69283;48.024;11.090;2024-02-04T04:47:43;4.55;;;2.10;;
79798;SDS011;69283;48.024;11.090;2024-02-04T04:50:09;5.82;;;2.28;;
79798;SDS011;69283;48.024;11.090;2024-02-04T04:52:34;3.85;;;2.05;;
79798;SDS011;69283;48.024;11.090;2024-02-04T04:54:59;3.75;;;2.03;;
79798;SDS011;69283;48.024;11.090;2024-02-04T04:57:25;3.80;;;1.93;;
79798;SDS011;69283;48.024;11.090;2024-02-04T04:59:50;3.47;;;2.13;;
79798;SDS011;69283;48.024;11.090;2024-02-04T05:02:15;4.22;;;2.38;;
79798;SDS011;69283;48.024;11.090;2024-02-04T05:04:44;5.30;;;2.33;;
79798;SDS011;69283;48.024;11.090;2024-02-04T05:09:58;4.70;;;2.60;;
79798;SDS011;69283;48.024;11.090;2024-02-04T05:12:24;6.13;;;2.70;;
79798;SDS011;69283;48.024;11.090;2024-02-04T05:14:49;7.05;;;2.90;;
79798;SDS011;69283;48.024;11.090;2024-02-04T05:17:14;6.23;;;2.93;;
79798;SDS011;69283;48.024;11.090;2024-02-04T05:19:42;4.83;;;2.17;;
79798;SDS011;69283;48.024;11.090;2024-02-04T05:22:08;4.50;;;2.50;;
79798;SDS011;69283;48.024;11.090;2024-02-04T05:24:33;3.43;;;1.97;;
79798;SDS011;69283;48.024;11.090;2024-02-04T05:26:58;4.70;;;2.83;;
79798;SDS011;69283;48.024;11.090;2024-02-04T05:29:24;3.67;;;2.40;;
79798;SDS011;69283;48.024;11.090;2024-02-04T05:31:49;5.47;;;2.40;;
79798;SDS011;69283;48.024;11.090;2024-02-04T05:36:58;4.57;;;2.65;;
79798;SDS011;69283;48.024;11.090;2024-02-04T05:39:23;8.47;;;2.70;;
79798;SDS011;69283;48.024;11.090;2024-02-04T05:41:49;5.13;;;2.63;;
79798;SDS011;69283;48.024;11.090;2024-02-04T05:44:14;6.07;;;2.40;;
79798;SDS011;69283;48.024;11.090;2024-02-04T05:46:40;10.88;;;2.75;;
79798;SDS011;69283;48.024;11.090;2024-02-04T05:49:05;5.18;;;2.95;;
79798;SDS011;69283;48.024;11.090;2024-02-04T05:51:40;3.80;;;2.20;;
79798;SDS011;69283;48.024;11.090;2024-02-04T05:54:06;4.90;;;2.42;;
79798;SDS011;69283;48.024;11.090;2024-02-04T05:56:32;7.25;;;2.75;;
79798;SDS011;69283;48.024;11.090;2024-02-04T05:58:57;7.10;;;3.00;;
79798;SDS011;69283;48.024;11.090;2024-02-04T06:03:58;7.15;;;3.75;;
79798;SDS011;69283;48.024;11.090;2024-02-04T06:06:23;9.30;;;4.03;;
79798;SDS011;69283;48.024;11.090;2024-02-04T06:08:48;6.57;;;3.97;;
79798;SDS011;69283;48.024;11.090;2024-02-04T06:11:14;8.20;;;4.13;;
79798;SDS011;69283;48.024;11.090;2024-02-04T06:13:40;9.85;;;4.45;;
79798;SDS011;69283;48.024;11.090;2024-02-04T06:16:07;8.05;;;4.25;;
79798;SDS011;69283;48.024;11.090;2024-02-04T06:18:32;8.57;;;4.45;;
79798;SDS011;69283;48.024;11.090;2024-02-04T06:20:59;12.85;;;3.80;;
79798;SDS011;69283;48.024;11.090;2024-02-04T06:23:24;9.75;;;4.32;;
79798;SDS011;69283;48.024;11.090;2024-02-04T06:25:50;11.47;;;4.10;;
79798;SDS011;69283;48.024;11.090;2024-02-04T06:29:42;15.27;;;4.38;;
79798;SDS011;69283;48.024;11.090;2024-02-04T06:32:07;10.07;;;4.53;;
79798;SDS011;69283;48.024;11.090;2024-02-04T06:34:33;11.25;;;3.75;;
79798;SDS011;69283;48.024;11.090;2024-02-04T06:36:58;7.70;;;4.33;;
79798;SDS011;69283;48.024;11.090;2024-02-04T06:39:23;8.02;;;3.72;;
79798;SDS011;69283;48.024;11.090;2024-02-04T06:41:49;8.07;;;4.00;;
79798;SDS011;69283;48.024;11.090;2024-02-04T06:44:14;7.70;;;3.47;;
79798;SDS011;69283;48.024;11.090;2024-02-04T06:46:40;9.25;;;4.00;;
79798;SDS011;69283;48.024;11.090;2024-02-04T06:49:05;9.93;;;5.00;;
79798;SDS011;69283;48.024;11.090;2024-02-04T06:51:30;8.23;;;4.20;;
79798;SDS011;69283;48.024;11.090;2024-02-04T06:55:57;15.15;;;5.30;;
79798;SDS011;69283;48.024;11.090;2024-02-04T06:58:22;9.20;;;5.50;;
79798;SDS011;69283;48.024;11.090;2024-02-04T07:00:48;7.90;;;4.22;;
79798;SDS011;69283;48.024;11.090;2024-02-04T07:03:13;11.07;;;4.88;;
79798;SDS011;69283;48.024;11.090;2024-02-04T07:05:38;15.87;;;5.33;;
79798;SDS011;69283;48.024;11.090;2024-02-04T07:08:04;8.97;;;4.50;;
79798;SDS011;69283;48.024;11.090;2024-02-04T07:10:29;12.32;;;5.43;;
79798;SDS011;69283;48.024;11.090;2024-02-04T07:12:54;8.88;;;4.60;;
79798;SDS011;69283;48.024;11.090;2024-02-04T07:15:19;10.53;;;5.00;;
79798;SDS011;69283;48.024;11.090;2024-02-04T07:17:45;10.03;;;5.53;;
79798;SDS011;69283;48.024;11.090;2024-02-04T07:22:14;12.10;;;4.47;;
79798;SDS011;69283;48.024;11.090;2024-02-04T07:24:39;11.00;;;5.07;;
79798;SDS011;69283;48.024;11.090;2024-02-04T07:27:04;15.80;;;5.13;;
79798;SDS011;69283;48.024;11.090;2024-02-04T07:29:29;12.17;;;5.53;;
79798;SDS011;69283;48.024;11.090;2024-02-04T07:31:55;14.77;;;6.50;;
79798;SDS011;69283;48.024;11.090;2024-02-04T07:34:20;16.33;;;7.33;;
79798;SDS011;69283;48.024;11.090;2024-02-04T07:36:45;14.30;;;6.23;;
79798;SDS011;69283;48.024;11.090;2024-02-04T07:39:11;12.52;;;5.53;;
79798;SDS011;69283;48.024;11.090;2024-02-04T07:41:36;13.43;;;5.32;;
79798;SDS011;69283;48.024;11.090;2024-02-04T07:44:16;18.30;;;7.17;;
79798;SDS011;69283;48.024;11.090;2024-02-04T07:48:28;11.40;;;5.10;;
79798;SDS011;69283;48.024;11.090;2024-02-04T07:50:53;15.73;;;5.60;;
79798;SDS011;69283;48.024;11.090;2024-02-04T07:53:18;13.03;;;5.63;;
79798;SDS011;69283;48.024;11.090;2024-02-04T07:55:43;16.83;;;6.00;;
79798;SDS011;69283;48.024;11.090;2024-02-04T07:58:09;13.40;;;5.37;;
79798;SDS011;69283;48.024;11.090;2024-02-04T08:00:34;10.37;;;4.67;;
79798;SDS011;69283;48.024;11.090;2024-02-04T08:02:59;11.03;;;5.20;;
79798;SDS011;69283;48.024;11.090;2024-02-04T08:05:25;12.38;;;6.05;;
79798;SDS011;69283;48.024;11.090;2024-02-04T08:07:53;8.63;;;5.03;;
79798;SDS011;69283;48.024;11.090;2024-02-04T08:13:05;15.02;;;5.15;;
79798;SDS011;69283;48.024;11.090;2024-02-04T08:15:31;10.02;;;5.28;;
79798;SDS011;69283;48.024;11.090;2024-02-04T08:17:57;17.20;;;7.53;;
79798;SDS011;69283;48.024;11.090;2024-02-04T08:20:25;11.55;;;4.70;;
79798;SDS011;69283;48.024;11.090;2024-02-04T08:22:51;11.77;;;5.55;;
79798;SDS011;69283;48.024;11.090;2024-02-04T08:25:17;11.07;;;4.10;;
79798;SDS011;69283;48.024;11.090;2024-02-04T08:27:42;10.65;;;4.68;;
79798;SDS011;69283;48.024;11.090;2024-02-04T08:30:07;9.90;;;4.65;;
79798;SDS011;69283;48.024;11.090;2024-02-04T08:32:35;10.45;;;4.50;;
79798;SDS011;69283;48.024;11.090;2024-02-04T08:37:04;11.18;;;5.22;;
79798;SDS011;69283;48.024;11.090;2024-02-04T08:39:29;9.13;;;5.40;;
79798;SDS011;69283;48.024;11.090;2024-02-04T08:41:55;12.30;;;4.93;;
79798;SDS011;69283;48.024;11.090;2024-02-04T08:44:21;16.95;;;5.40;;
79798;SDS011;69283;48.024;11.090;2024-02-04T08:46:46;11.35;;;4.80;;
79798;SDS011;69283;48.024;11.090;2024-02-04T08:49:11;11.27;;;4.60;;
79798;SDS011;69283;48.024;11.090;2024-02-04T08:51:37;10.68;;;4.93;;
79798;SDS011;69283;48.024;11.090;2024-02-04T08:54:02;9.32;;;4.70;;
79798;SDS011;69283;48.024;11.090;2024-02-04T08:59:20;10.25;;;4.90;;
79798;SDS011;69283;48.024;11.090;2024-02-04T09:01:46;14.10;;;6.22;;
79798;SDS011;69283;48.024;11.090;2024-02-04T09:04:11;18.65;;;6.15;;
79798;SDS011;69283;48.024;11.090;2024-02-04T09:06:36;9.13;;;4.93;;
79798;SDS011;69283;48.024;11.090;2024-02-04T09:09:02;9.20;;;4.30;;
79798;SDS011;69283;48.024;11.090;2024-02-04T09:11:27;13.15;;;4.72;;
79798;SDS011;69283;48.024;11.090;2024-02-04T09:13:53;11.82;;;4.85;;
79798;SDS011;69283;48.024;11.090;2024-02-04T09:16:18;10.35;;;5.00;;
79798;SDS011;69283;48.024;11.090;2024-02-04T09:18:43;13.23;;;5.68;;
79798;SDS011;69283;48.024;11.090;2024-02-04T09:23:05;10.93;;;5.00;;
79798;SDS011;69283;48.024;11.090;2024-02-04T09:25:30;7.60;;;3.97;;
79798;SDS011;69283;48.024;11.090;2024-02-04T09:27:55;11.57;;;5.07;;
79798;SDS011;69283;48.024;11.090;2024-02-04T09:30:21;11.02;;;5.40;;
79798;SDS011;69283;48.024;11.090;2024-02-04T09:32:46;14.18;;;6.05;;
79798;SDS011;69283;48.024;11.090;2024-02-04T09:35:12;16.42;;;6.18;;
79798;SDS011;69283;48.024;11.090;2024-02-04T09:37:38;10.57;;;4.97;;
79798;SDS011;69283;48.024;11.090;2024-02-04T09:42:56;7.60;;;3.70;;
79798;SDS011;69283;48.024;11.090;2024-02-04T09:47:47;11.25;;;5.30;;
79798;SDS011;69283;48.024;11.090;2024-02-04T09:50:15;9.57;;;4.82;;
79798;SDS011;69283;48.024;11.090;2024-02-04T09:52:40;11.73;;;4.65;;
79798;SDS011;69283;48.024;11.090;2024-02-04T09:55:12;9.85;;;4.43;;
79798;SDS011;69283;48.024;11.090;2024-02-04T09:57:39;9.82;;;5.38;;
79798;SDS011;69283;48.024;11.090;2024-02-04T10:00:04;16.80;;;6.18;;
79798;SDS011;69283;48.024;11.090;2024-02-04T10:02:30;13.27;;;4.57;;
79798;SDS011;69283;48.024;11.090;2024-02-04T10:04:57;11.65;;;4.25;;
79798;SDS011;69283;48.024;11.090;2024-02-04T10:07:22;10.57;;;3.95;;
79798;SDS011;69283;48.024;11.090;2024-02-04T10:11:59;7.70;;;3.67;;
79798;SDS011;69283;48.024;11.090;2024-02-04T10:14:24;8.43;;;3.80;;
79798;SDS011;69283;48.024;11.090;2024-02-04T10:16:50;6.72;;;3.45;;
79798;SDS011;69283;48.024;11.090;2024-02-04T10:19:16;10.02;;;4.68;;
79798;SDS011;69283;48.024;11.090;2024-02-04T10:21:42;7.90;;;4.45;;
79798;SDS011;69283;48.024;11.090;2024-02-04T10:24:07;6.90;;;3.65;;
79798;SDS011;69283;48.024;11.090;2024-02-04T10:26:33;8.43;;;3.13;;
79798;SDS011;69283;48.024;11.090;2024-02-04T10:29:02;11.60;;;3.38;;
79798;SDS011;69283;48.024;11.090;2024-02-04T10:31:29;8.20;;;3.60;;
79798;SDS011;69283;48.024;11.090;2024-02-04T10:34:41;7.78;;;3.72;;
79798;SDS011;69283;48.024;11.090;2024-02-04T10:37:08;11.23;;;5.10;;
79798;SDS011;69283;48.024;11.090;2024-02-04T10:39:33;4.60;;;2.80;;
79798;SDS011;69283;48.024;11.090;2024-02-04T10:42:01;4.43;;;2.50;;
79798;SDS011;69283;48.024;11.090;2024-02-04T10:44:28;6.80;;;2.90;;
79798;SDS011;69283;48.024;11.090;2024-02-04T10:46:59;5.20;;;2.53;;
79798;SDS011;69283;48.024;11.090;2024-02-04T10:49:28;8.02;;;2.90;;
79798;SDS011;69283;48.024;11.090;2024-02-04T10:51:53;8.07;;;3.30;;
79798;SDS011;69283;48.024;11.090;2024-02-04T10:54:21;9.13;;;2.80;;
79798;SDS011;69283;48.024;11.090;2024-02-04T10:59:51;9.98;;;3.88;;
79798;SDS011;69283;48.024;11.090;2024-02-04T11:02:17;9.30;;;2.42;;
79798;SDS011;69283;48.024;11.090;2024-02-04T11:04:44;6.45;;;2.40;;
79798;SDS011;69283;48.024;11.090;2024-02-04T11:07:13;7.13;;;2.63;;
79798;SDS011;69283;48.024;11.090;2024-02-04T11:09:39;5.25;;;2.58;;
79798;SDS011;69283;48.024;11.090;2024-02-04T11:12:06;7.43;;;2.40;;
79798;SDS011;69283;48.024;11.090;2024-02-04T11:14:35;5.57;;;2.38;;
79798;SDS011;69283;48.024;11.090;2024-02-04T11:20:08;2.90;;;1.70;;
79798;SDS011;69283;48.024;11.090;2024-02-04T11:25:44;8.30;;;2.13;;
79798;SDS011;69283;48.024;11.090;2024-02-04T11:28:12;6.70;;;1.85;;
79798;SDS011;69283;48.024;11.090;2024-02-04T11:30:38;7.95;;;1.70;;
79798;SDS011;69283;48.024;11.090;2024-02-04T11:33:04;10.07;;;1.80;;
79798;SDS011;69283;48.024;11.090;2024-02-04T11:35:33;7.72;;;1.90;;
79798;SDS011;69283;48.024;11.090;2024-02-04T11:37:59;5.30;;;2.47;;
79798;SDS011;69283;48.024;11.090;2024-02-04T11:40:29;6.55;;;2.03;;
79798;SDS011;69283;48.024;11.090;2024-02-04T11:45:52;7.15;;;3.05;;
79798;SDS011;69283;48.024;11.090;2024-02-04T11:50:53;8.48;;;3.53;;
79798;SDS011;69283;48.024;11.090;2024-02-04T11:53:19;5.28;;;2.10;;
79798;SDS011;69283;48.024;11.090;2024-02-04T11:55:44;5.47;;;1.50;;
79798;SDS011;69283;48.024;11.090;2024-02-04T11:58:10;6.03;;;1.63;;
79798;SDS011;69283;48.024;11.090;2024-02-04T12:00:36;6.75;;;1.90;;
79798;SDS011;69283;48.024;11.090;2024-02-04T12:03:05;6.47;;;1.65;;
79798;SDS011;69283;48.024;11.090;2024-02-04T12:05:32;3.58;;;2.20;;
79798;SDS011;69283;48.024;11.090;2024-02-04T12:08:02;5.90;;;1.98;;
79798;SDS011;69283;48.024;11.090;2024-02-04T12:10:32;8.48;;;2.20;;
79798;SDS011;69283;48.024;11.090;2024-02-04T12:15:49;4.25;;;1.65;;
79798;SDS011;69283;48.024;11.090;2024-02-04T12:18:15;4.45;;;2.15;;
79798;SDS011;69283;48.024;11.090;2024-02-04T12:20:45;7.05;;;2.58;;
79798;SDS011;69283;48.024;11.090;2024-02-04T12:23:12;5.78;;;2.55;;
79798;SDS011;69283;48.024;11.090;2024-02-04T12:25:37;7.68;;;2.83;;
79798;SDS011;69283;48.024;11.090;2024-02-04T12:28:03;7.20;;;2.63;;
79798;SDS011;69283;48.024;11.090;2024-02-04T12:30:29;3.83;;;1.90;;
79798;SDS011;69283;48.024;11.090;2024-02-04T12:32:56;4.38;;;2.30;;
79798;SDS011;69283;48.024;11.090;2024-02-04T12:35:25;7.70;;;3.05;;
79798;SDS011;69283;48.024;11.090;2024-02-04T12:40:32;7.50;;;1.98;;
79798;SDS011;69283;48.024;11.090;2024-02-04T12:42:58;4.60;;;1.33;;
79798;SDS011;69283;48.024;11.090;2024-02-04T12:45:26;6.32;;;1.67;;
79798;SDS011;69283;48.024;11.090;2024-02-04T12:47:53;7.07;;;2.30;;
79798;SDS011;69283;48.024;11.090;2024-02-04T12:50:19;7.07;;;2.70;;
79798;SDS011;69283;48.024;11.090;2024-02-04T12:52:46;10.88;;;3.15;;
79798;SDS011;69283;48.024;11.090;2024-02-04T12:55:25;11.40;;;2.85;;
79798;SDS011;69283;48.024;11.090;2024-02-04T13:00:30;5.53;;;1.25;;
79798;SDS011;69283;48.024;11.090;2024-02-04T13:02:56;4.15;;;1.60;;
79798;SDS011;69283;48.024;11.090;2024-02-04T13:07:41;7.50;;;1.90;;
79798;SDS011;69283;48.024;11.090;2024-02-04T13:10:07;4.22;;;1.80;;
79798;SDS011;69283;48.024;11.090;2024-02-04T13:12:33;11.70;;;3.65;;
79798;SDS011;69283;48.024;11.090;2024-02-04T13:15:00;8.02;;;2.90;;
79798;SDS011;69283;48.024;11.090;2024-02-04T13:17:25;4.03;;;1.60;;
79798;SDS011;69283;48.024;11.090;2024-02-04T13:19:51;4.78;;;1.55;;
79798;SDS011;69283;48.024;11.090;2024-02-04T13:22:16;4.38;;;1.88;;
79798;SDS011;69283;48.024;11.090;2024-02-04T13:24:41;6.72;;;1.60;;
79798;SDS011;69283;48.024;11.090;2024-02-04T13:27:07;9.75;;;2.45;;
79798;SDS011;69283;48.024;11.090;2024-02-04T13:29:33;5.25;;;1.85;;
79798;SDS011;69283;48.024;11.090;2024-02-04T13:33:25;4.93;;;1.17;;
79798;SDS011;69283;48.024;11.090;2024-02-04T13:35:51;7.80;;;1.60;;
79798;SDS011;69283;48.024;11.090;2024-02-04T13:38:16;4.83;;;1.10;;
79798;SDS011;69283;48.024;11.090;2024-02-04T13:40:41;2.47;;;1.33;;
79798;SDS011;69283;48.024;11.090;2024-02-04T13:43:07;4.57;;;1.40;;
79798;SDS011;69283;48.024;11.090;2024-02-04T13:45:32;4.97;;;1.10;;
79798;SDS011;69283;48.024;11.090;2024-02-04T13:47:57;5.67;;;1.50;;
79798;SDS011;69283;48.024;11.090;2024-02-04T13:50:23;5.50;;;1.77;;
79798;SDS011;69283;48.024;11.090;2024-02-04T13:52:48;8.93;;;1.50;;
79798;SDS011;69283;48.024;11.090;2024-02-04T13:58:25;5.75;;;1.75;;
79798;SDS011;69283;48.024;11.090;2024-02-04T14:00:51;8.32;;;1.00;;
79798;SDS011;69283;48.024;11.090;2024-02-04T14:03:16;7.72;;;1.92;;
79798;SDS011;69283;48.024;11.090;2024-02-04T14:05:41;4.27;;;1.57;;
79798;SDS011;69283;48.024;11.090;2024-02-04T14:08:07;5.70;;;1.65;;
79798;SDS011;69283;48.024;11.090;2024-02-04T14:10:32;3.03;;;1.67;;
79798;SDS011;69283;48.024;11.090;2024-02-04T14:12:58;4.87;;;1.50;;
79798;SDS011;69283;48.024;11.090;2024-02-04T14:15:23;4.87;;;1.77;;
79798;SDS011;69283;48.024;11.090;2024-02-04T14:17:48;5.27;;;1.07;;
79798;SDS011;69283;48.024;11.090;2024-02-04T14:20:14;7.00;;;1.70;;
79798;SDS011;69283;48.024;11.090;2024-02-04T14:25:21;3.60;;;0.93;;
79798;SDS011;69283;48.024;11.090;2024-02-04T14:27:49;3.63;;;1.15;;
79798;SDS011;69283;48.024;11.090;2024-02-04T14:30:15;2.70;;;0.90;;
79798;SDS011;69283;48.024;11.090;2024-02-04T14:32:40;5.30;;;2.55;;
79798;SDS011;69283;48.024;11.090;2024-02-04T14:35:07;3.03;;;1.08;;
79798;SDS011;69283;48.024;11.090;2024-02-04T14:37:34;4.22;;;1.25;;
79798;SDS011;69283;48.024;11.090;2024-02-04T14:40:00;2.80;;;1.20;;
79798;SDS011;69283;48.024;11.090;2024-02-04T14:42:25;3.20;;;1.30;;
79798;SDS011;69283;48.024;11.090;2024-02-04T14:44:54;3.58;;;1.23;;
79798;SDS011;69283;48.024;11.090;2024-02-04T14:50:16;5.97;;;1.52;;
79798;SDS011;69283;48.024;11.090;2024-02-04T14:52:43;2.42;;;0.88;;
79798;SDS011;69283;48.024;11.090;2024-02-04T14:55:08;5.40;;;1.20;;
79798;SDS011;69283;48.024;11.090;2024-02-04T14:57:34;2.15;;;0.73;;
79798;SDS011;69283;48.024;11.090;2024-02-04T15:00:00;3.85;;;0.93;;
79798;SDS011;69283;48.024;11.090;2024-02-04T15:02:25;3.27;;;1.23;;
79798;SDS011;69283;48.024;11.090;2024-02-04T15:04:50;5.97;;;1.43;;
79798;SDS011;69283;48.024;11.090;2024-02-04T15:07:16;2.42;;;1.05;;
79798;SDS011;69283;48.024;11.090;2024-02-04T15:09:41;4.30;;;1.27;;
79798;SDS011;69283;48.024;11.090;2024-02-04T15:12:06;5.93;;;1.20;;
79798;SDS011;69283;48.024;11.090;2024-02-04T15:17:15;2.00;;;0.95;;
79798;SDS011;69283;48.024;11.090;2024-02-04T15:19:40;3.28;;;1.02;;
79798;SDS011;69283;48.024;11.090;2024-02-04T15:22:06;3.30;;;1.20;;
79798;SDS011;69283;48.024;11.090;2024-02-04T15:24:32;3.22;;;1.30;;
79798;SDS011;69283;48.024;11.090;2024-02-04T15:26:58;3.42;;;1.30;;
79798;SDS011;69283;48.024;11.090;2024-02-04T15:29:30;5.38;;;1.58;;
79798;SDS011;69283;48.024;11.090;2024-02-04T15:31:59;3.58;;;1.23;;
79798;SDS011;69283;48.024;11.090;2024-02-04T15:34:24;6.22;;;1.33;;
79798;SDS011;69283;48.024;11.090;2024-02-04T15:36:50;4.63;;;1.73;;
79798;SDS011;69283;48.024;11.090;2024-02-04T15:39:15;5.43;;;1.63;;
79798;SDS011;69283;48.024;11.090;2024-02-04T15:44:17;4.38;;;1.45;;
79798;SDS011;69283;48.024;11.090;2024-02-04T15:46:42;2.97;;;1.40;;
79798;SDS011;69283;48.024;11.090;2024-02-04T15:49:09;7.63;;;1.85;;
79798;SDS011;69283;48.024;11.090;2024-02-04T15:51:37;4.28;;;1.77;;
79798;SDS011;69283;48.024;11.090;2024-02-04T15:54:03;10.85;;;4.70;;
79798;SDS011;69283;48.024;11.090;2024-02-04T15:56:31;10.63;;;4.45;;
79798;SDS011;69283;48.024;11.090;2024-02-04T16:01:29;7.82;;;1.70;;
79798;SDS011;69283;48.024;11.090;2024-02-04T16:03:59;7.43;;;2.33;;
79798;SDS011;69283;48.024;11.090;2024-02-04T16:06:24;4.43;;;2.03;;